createdAt,value
2023-03-29T00:00:46.955Z,100889.19
2023-03-29T00:03:37.419Z,100885.53
2023-03-29T00:06:33.267Z,100887.97
2023-03-29T00:09:21.164Z,100895.59
2023-03-29T00:12:08.098Z,100887.59
2023-03-29T00:14:56.747Z,100857.94
2023-03-29T00:17:43.461Z,100886.97
2023-03-29T00:20:30.179Z,100887.19
2023-03-29T00:23:18.587Z,100885.91
2023-03-29T00:26:08.613Z,100890.16
2023-03-29T00:28:55.633Z,100891.59
2023-03-29T00:31:42.754Z,100878.41
2023-03-29T00:34:31.817Z,100880.66
2023-03-29T00:37:22.883Z,100880.69
2023-03-29T00:40:15.796Z,100876.41
2023-03-29T00:43:06.419Z,100869.06
2023-03-29T00:45:53.411Z,100871.09
2023-03-29T00:48:40.500Z,100853.50
2023-03-29T00:51:28.658Z,100867.97
2023-03-29T00:54:21.204Z,100853.19
2023-03-29T00:57:10.847Z,100858.97
2023-03-29T00:59:58.605Z,100860.41
2023-03-29T01:02:51.198Z,100866.22
2023-03-29T01:05:42.227Z,100849.78
2023-03-29T01:08:37.620Z,100846.34
2023-03-29T01:11:28.509Z,100843.91
2023-03-29T01:14:22.985Z,100847.44
2023-03-29T01:17:13.114Z,100841.06
2023-03-29T01:20:09.787Z,100843.06
2023-03-29T01:23:33.863Z,100844.88
2023-03-29T01:26:30.519Z,100843.38
2023-03-29T01:29:43.407Z,100811.03
2023-03-29T01:32:37.864Z,100828.16
2023-03-29T01:35:32.834Z,100830.06
2023-03-29T01:38:23.583Z,100822.25
2023-03-29T01:41:12.261Z,100837.16
2023-03-29T01:44:06.757Z,100829.09
2023-03-29T01:46:57.071Z,100838.81
2023-03-29T01:49:52.365Z,100838.16
2023-03-29T01:52:52.358Z,100827.84
2023-03-29T01:55:41.263Z,100827.03
2023-03-29T01:58:33.971Z,100822.88
2023-03-29T02:01:26.227Z,100825.16
2023-03-29T02:04:18.018Z,100814.16
2023-03-29T02:07:07.535Z,100818.88
2023-03-29T02:09:54.323Z,100817.09
2023-03-29T02:12:41.371Z,100813.81
2023-03-29T02:15:28.306Z,100817.53
2023-03-29T02:18:17.942Z,100792.09
2023-03-29T02:21:07.507Z,100819.31
2023-03-29T02:23:56.288Z,100785.69
2023-03-29T02:26:42.870Z,100816.47
2023-03-29T02:29:29.743Z,100780.19
2023-03-29T02:32:49.171Z,100820.00
2023-03-29T02:35:46.242Z,100780.81
2023-03-29T02:38:33.341Z,100810.00
2023-03-29T02:41:21.229Z,100813.78
2023-03-29T02:44:19.293Z,100802.09
2023-03-29T02:47:16.384Z,100808.69
2023-03-29T02:50:02.893Z,100805.47
2023-03-29T02:52:56.447Z,100802.78
2023-03-29T02:55:43.192Z,100803.00
2023-03-29T02:58:29.801Z,100799.28
2023-03-29T03:01:16.989Z,100774.50
2023-03-29T03:04:06.372Z,100804.69
2023-03-29T03:06:55.343Z,100775.94
2023-03-29T03:09:42.847Z,100786.81
2023-03-29T03:12:29.429Z,100788.75
2023-03-29T03:15:16.428Z,100798.03
2023-03-29T03:18:04.450Z,100795.81
2023-03-29T03:20:57.250Z,100788.63
2023-03-29T03:23:46.167Z,100786.91
2023-03-29T03:26:34.324Z,100792.00
2023-03-29T03:29:25.327Z,100789.19
2023-03-29T03:32:30.680Z,100790.19
2023-03-29T03:36:02.975Z,100784.88
2023-03-29T03:38:50.840Z,100786.81
2023-03-29T03:41:40.537Z,100780.22
2023-03-29T03:44:30.497Z,100748.31
2023-03-29T03:47:41.215Z,100753.44
2023-03-29T03:50:59.309Z,100779.25
2023-03-29T03:53:51.893Z,100772.53
2023-03-29T03:56:53.789Z,100779.97
2023-03-29T03:59:49.163Z,100781.84
2023-03-29T04:02:43.772Z,100784.97
2023-03-29T04:05:30.214Z,100764.03
2023-03-29T04:08:17.469Z,100777.66
2023-03-29T04:11:28.170Z,100776.28
2023-03-29T04:14:15.478Z,100782.75
2023-03-29T04:17:22.809Z,100773.47
2023-03-29T04:20:15.113Z,100778.56
2023-03-29T04:23:01.895Z,100742.00
2023-03-29T04:25:53.972Z,100760.94
2023-03-29T04:29:16.293Z,100762.19
2023-03-29T04:32:14.299Z,100763.50
2023-03-29T04:35:21.274Z,100758.66
2023-03-29T04:38:13.854Z,100763.59
2023-03-29T04:41:05.171Z,100758.13
2023-03-29T04:44:18.214Z,100755.06
2023-03-29T04:47:13.293Z,100756.22
2023-03-29T04:50:03.422Z,100748.50
2023-03-29T04:53:00.456Z,100741.66
2023-03-29T04:55:52.412Z,100727.31
2023-03-29T04:58:52.330Z,100753.59
2023-03-29T05:01:40.897Z,100746.81
2023-03-29T05:04:29.384Z,100734.47
2023-03-29T05:07:24.861Z,100736.94
2023-03-29T05:10:18.018Z,100742.31
2023-03-29T05:13:08.372Z,100736.59
2023-03-29T05:15:55.111Z,100734.88
2023-03-29T05:18:42.094Z,100733.69
2023-03-29T05:21:29.721Z,100732.84
2023-03-29T05:24:22.612Z,100727.44
2023-03-29T05:27:17.392Z,100704.78
2023-03-29T05:30:16.569Z,100716.16
2023-03-29T05:33:16.141Z,100732.06
2023-03-29T05:36:11.288Z,100720.88
2023-03-29T05:39:06.209Z,100717.38
2023-03-29T05:41:55.033Z,100713.16
2023-03-29T05:44:54.614Z,100708.47
2023-03-29T05:47:41.873Z,100699.94
2023-03-29T05:50:28.521Z,100708.63
2023-03-29T05:53:17.769Z,100693.25
2023-03-29T05:56:04.390Z,100719.66
2023-03-29T05:58:57.137Z,100715.22
2023-03-29T06:01:47.148Z,100675.88
2023-03-29T06:04:40.242Z,100718.22
2023-03-29T06:07:44.532Z,100726.19
2023-03-29T06:10:36.795Z,100726.50
2023-03-29T06:13:42.321Z,100722.75
2023-03-29T06:16:29.727Z,100726.00
2023-03-29T06:19:17.474Z,100699.53
2023-03-29T06:22:05.616Z,100688.56
2023-03-29T06:24:54.835Z,100699.31
2023-03-29T06:27:52.181Z,100688.16
2023-03-29T06:30:39.798Z,100695.94
2023-03-29T06:33:27.827Z,100713.97
2023-03-29T06:36:34.585Z,100687.19
2023-03-29T06:39:21.541Z,100714.63
2023-03-29T06:42:22.686Z,100682.69
2023-03-29T06:45:38.858Z,100649.34
2023-03-29T06:48:31.842Z,100678.03
2023-03-29T06:51:21.117Z,100710.69
2023-03-29T06:54:09.395Z,100710.25
2023-03-29T06:57:05.575Z,100708.13
2023-03-29T06:59:54.062Z,100686.84
2023-03-29T07:02:54.300Z,100705.81
2023-03-29T07:05:41.921Z,100721.13
2023-03-29T07:08:35.290Z,100718.75
2023-03-29T07:11:26.579Z,100710.59
2023-03-29T07:14:31.051Z,100715.47
2023-03-29T07:17:18.775Z,100709.56
2023-03-29T07:20:14.688Z,100709.91
2023-03-29T07:23:09.739Z,100715.72
2023-03-29T07:25:56.648Z,100708.28
2023-03-29T07:28:43.404Z,100715.06
2023-03-29T07:31:30.923Z,100712.16
2023-03-29T07:34:37.144Z,100708.38
2023-03-29T07:37:26.426Z,100717.38
2023-03-29T07:40:19.114Z,100705.69
2023-03-29T07:43:38.015Z,100711.72
2023-03-29T07:46:30.010Z,100704.09
2023-03-29T07:49:17.175Z,100700.53
2023-03-29T07:52:04.026Z,100701.91
2023-03-29T07:54:54.289Z,100704.06
2023-03-29T07:57:52.323Z,100707.31
2023-03-29T08:00:39.470Z,100698.59
2023-03-29T08:03:48.919Z,100701.06
2023-03-29T08:06:36.819Z,100692.03
2023-03-29T08:09:29.746Z,100693.94
2023-03-29T08:12:17.094Z,100666.41
2023-03-29T08:15:13.518Z,100695.50
2023-03-29T08:18:03.326Z,100693.31
2023-03-29T08:20:53.125Z,100693.59
2023-03-29T08:23:43.081Z,100695.50
2023-03-29T08:26:45.202Z,100681.31
2023-03-29T08:29:34.847Z,100691.88
2023-03-29T08:32:22.599Z,100689.97
2023-03-29T08:35:09.893Z,100686.13
2023-03-29T08:38:09.510Z,100687.44
2023-03-29T08:40:57.020Z,100659.66
2023-03-29T08:43:45.507Z,100675.63
2023-03-29T08:46:58.490Z,100674.47
2023-03-29T08:49:56.701Z,100648.56
2023-03-29T08:52:57.536Z,100638.38
2023-03-29T08:56:25.187Z,100664.47
2023-03-29T08:59:37.620Z,100658.97
2023-03-29T09:02:36.465Z,100660.50
2023-03-29T09:05:39.183Z,100659.09
2023-03-29T09:08:32.548Z,100656.56
2023-03-29T09:11:24.100Z,100653.72
2023-03-29T09:14:29.687Z,100644.66
2023-03-29T09:17:56.324Z,100645.16
2023-03-29T09:20:52.812Z,100652.19
2023-03-29T09:23:59.387Z,100644.91
2023-03-29T09:26:55.368Z,100643.66
2023-03-29T09:30:13.162Z,100643.75
2023-03-29T09:33:44.490Z,100650.69
2023-03-29T09:37:02.904Z,100634.06
2023-03-29T09:39:49.896Z,100634.94
2023-03-29T09:42:40.726Z,100625.94
2023-03-29T09:45:27.220Z,100614.81
2023-03-29T09:48:15.843Z,100625.63
2023-03-29T09:51:08.977Z,100618.53
2023-03-29T09:53:58.237Z,100622.38
2023-03-29T09:57:03.589Z,100583.72
2023-03-29T09:59:51.539Z,100617.53
2023-03-29T10:02:38.403Z,100614.75
2023-03-29T10:05:26.375Z,100607.03
2023-03-29T10:08:44.829Z,100611.03
2023-03-29T10:11:37.519Z,100600.59
2023-03-29T10:14:38.625Z,100592.63
2023-03-29T10:17:28.496Z,100592.25
2023-03-29T10:20:36.540Z,100599.88
2023-03-29T10:23:23.296Z,100589.22
2023-03-29T10:26:21.692Z,100589.78
2023-03-29T10:29:09.632Z,100584.97
2023-03-29T10:31:56.746Z,100594.78
2023-03-29T10:34:48.175Z,100591.53
2023-03-29T10:37:35.414Z,100589.66
2023-03-29T10:40:40.903Z,100587.16
2023-03-29T10:43:34.939Z,100574.34
2023-03-29T10:46:27.495Z,100576.50
2023-03-29T10:49:20.574Z,100550.69
2023-03-29T10:52:13.787Z,100567.03
2023-03-29T10:55:03.469Z,100554.75
2023-03-29T10:58:41.414Z,100561.19
2023-03-29T11:01:47.391Z,100555.94
2023-03-29T11:05:13.779Z,100557.50
2023-03-29T11:08:17.671Z,100552.44
2023-03-29T11:11:37.467Z,100543.38
2023-03-29T11:15:05.655Z,100537.03
2023-03-29T11:18:33.389Z,100526.59
2023-03-29T11:21:37.815Z,100526.50
2023-03-29T11:35:42.444Z,100512.03
2023-03-29T11:38:37.889Z,100512.09
2023-03-29T11:41:30.800Z,100504.41
2023-03-29T11:44:23.485Z,100508.97
2023-03-29T11:47:23.527Z,100495.88
2023-03-29T11:50:20.683Z,100497.84
2023-03-29T11:53:17.680Z,100491.53
2023-03-29T11:56:13.305Z,100484.66
2023-03-29T11:59:09.021Z,100483.25
2023-03-29T12:02:20.551Z,100475.94
2023-03-29T12:05:24.694Z,100475.13
2023-03-29T12:08:21.353Z,100466.09
2023-03-29T12:11:30.849Z,100457.31
2023-03-29T12:14:27.366Z,100452.88
2023-03-29T12:17:24.660Z,100457.22
2023-03-29T12:20:20.138Z,100448.78
2023-03-29T12:23:16.652Z,100448.00
2023-03-29T12:26:12.917Z,100434.44
2023-03-29T12:29:28.633Z,100433.19
2023-03-29T12:32:38.921Z,100433.09
2023-03-29T12:36:08.945Z,100430.66
2023-03-29T12:39:19.062Z,100418.00
2023-03-29T12:43:05.292Z,100416.28
2023-03-29T12:46:21.518Z,100411.13
2023-03-29T12:49:23.100Z,100411.66
2023-03-29T12:52:32.945Z,100403.75
2023-03-29T12:55:45.509Z,100398.03
2023-03-29T12:58:39.986Z,100408.63
2023-03-29T13:01:29.002Z,100408.84
2023-03-29T13:04:21.941Z,100406.09
2023-03-29T13:07:24.214Z,100406.56
2023-03-29T13:10:33.249Z,100390.31
2023-03-29T13:13:26.142Z,100397.44
2023-03-29T13:45:26.746Z,100368.97
2023-03-29T13:48:30.965Z,100361.28
2023-03-29T13:51:19.364Z,100341.16
2023-03-29T13:54:19.874Z,100305.94
2023-03-29T13:57:41.267Z,100267.81
2023-03-29T14:00:33.850Z,100353.34
2023-03-29T14:03:33.298Z,100328.97
2023-03-29T14:06:42.649Z,100308.44
2023-03-29T14:09:35.041Z,100358.22
2023-03-29T14:12:29.401Z,100265.00
2023-03-29T14:15:45.231Z,100314.34
2023-03-29T14:18:36.655Z,100242.88
2023-03-29T14:21:23.147Z,100307.25
2023-03-29T14:24:13.002Z,100241.91
2023-03-29T14:27:02.769Z,100306.16
2023-03-29T14:29:51.773Z,100293.03
2023-03-29T14:32:39.855Z,100267.16
2023-03-29T14:35:32.490Z,100290.28
2023-03-29T14:38:18.683Z,100331.91
2023-03-29T14:41:05.568Z,100279.13
2023-03-29T14:43:52.359Z,100273.56
2023-03-29T14:46:39.595Z,100211.88
2023-03-29T14:49:27.289Z,100206.09
2023-03-29T14:52:15.655Z,100247.41
2023-03-29T14:55:02.740Z,100311.38
2023-03-29T14:57:51.380Z,100306.09
2023-03-29T15:00:43.095Z,100207.50
2023-03-29T15:03:33.444Z,100186.38
2023-03-29T15:06:20.934Z,100193.78
2023-03-29T15:09:15.403Z,100226.75
2023-03-29T15:12:06.217Z,100259.22
2023-03-29T15:14:54.833Z,100189.94
2023-03-29T15:17:51.923Z,100224.75
2023-03-29T15:20:40.600Z,100239.28
2023-03-29T15:23:27.163Z,100134.91
2023-03-29T15:26:20.326Z,100261.13
2023-03-29T15:29:23.670Z,100196.63
2023-03-29T15:32:23.065Z,100211.03
2023-03-29T15:35:25.859Z,100171.78
2023-03-29T15:38:14.323Z,100253.44
2023-03-29T15:41:04.218Z,100219.66
2023-03-29T15:43:50.654Z,100185.28
2023-03-29T15:46:37.249Z,100133.59
2023-03-29T15:50:06.205Z,100172.13
2023-03-29T15:53:43.190Z,100245.53
2023-03-29T15:56:37.567Z,100173.31
2023-03-29T15:59:25.733Z,100165.22
2023-03-29T16:02:16.666Z,100155.47
2023-03-29T16:05:04.831Z,100148.34
2023-03-29T16:07:51.353Z,100243.25
2023-03-29T16:10:37.927Z,100237.31
2023-03-29T16:13:24.831Z,100170.69
2023-03-29T16:16:13.529Z,100244.16
2023-03-29T16:19:00.147Z,100112.66
2023-03-29T16:21:46.082Z,100244.84
2023-03-29T16:24:34.158Z,100161.13
2023-03-29T16:27:20.630Z,100244.13
2023-03-29T16:30:08.496Z,100161.63
2023-03-29T16:32:55.133Z,100120.25
2023-03-29T16:35:42.257Z,100157.53
2023-03-29T16:38:29.483Z,100179.41
2023-03-29T16:41:16.983Z,100226.63
2023-03-29T16:44:04.105Z,100128.44
2023-03-29T16:46:50.734Z,100225.66
2023-03-29T16:49:39.238Z,100236.06
2023-03-29T16:52:27.852Z,100205.34
2023-03-29T16:55:15.359Z,100203.44
2023-03-29T16:58:01.829Z,100161.75
2023-03-29T17:00:48.630Z,100237.69
2023-03-29T17:03:37.496Z,100230.06
2023-03-29T17:06:24.269Z,100201.47
2023-03-29T17:09:10.775Z,100235.28
2023-03-29T17:11:57.084Z,100192.75
2023-03-29T17:14:43.678Z,100184.88
2023-03-29T17:17:29.907Z,100150.25
2023-03-29T17:20:16.924Z,100157.09
2023-03-29T17:23:03.219Z,100131.47
2023-03-29T17:25:50.186Z,100111.97
2023-03-29T17:28:39.020Z,100185.88
2023-03-29T17:31:26.300Z,100191.06
2023-03-29T17:34:12.475Z,100178.66
2023-03-29T17:37:00.172Z,100235.06
2023-03-29T17:39:46.324Z,100215.94
2023-03-29T17:42:32.813Z,100099.75
2023-03-29T17:45:19.615Z,100151.25
2023-03-29T17:48:06.666Z,100191.13
2023-03-29T17:50:57.010Z,100204.91
2023-03-29T17:53:44.293Z,100187.03
2023-03-29T17:56:30.798Z,100158.84
2023-03-29T17:59:17.752Z,100125.84
2023-03-29T18:02:06.139Z,100114.53
2023-03-29T18:04:52.689Z,100217.25
2023-03-29T18:07:38.668Z,100168.19
2023-03-29T18:10:25.165Z,100159.25
2023-03-29T18:13:14.164Z,100212.44
2023-03-29T18:16:05.441Z,100137.69
2023-03-29T18:18:52.301Z,100157.09
2023-03-29T18:21:38.587Z,100228.63
2023-03-29T18:24:33.197Z,100168.59
2023-03-29T18:27:20.035Z,100237.97
2023-03-29T18:30:07.767Z,100131.25
2023-03-29T18:32:54.181Z,100242.91
2023-03-29T18:35:40.644Z,100229.25
2023-03-29T18:38:27.241Z,100196.75
2023-03-29T18:41:14.367Z,100147.16
2023-03-29T18:44:01.119Z,100224.66
2023-03-29T18:46:48.220Z,100185.81
2023-03-29T18:49:34.726Z,100089.19
2023-03-29T18:52:24.996Z,100203.47
2023-03-29T18:55:11.532Z,100207.38
2023-03-29T18:57:58.030Z,100134.03
2023-03-29T19:00:44.713Z,100103.22
2023-03-29T19:03:32.195Z,100150.00
2023-03-29T19:06:19.378Z,100206.66
2023-03-29T19:09:05.515Z,100153.84
2023-03-29T19:11:51.764Z,100161.22
2023-03-29T19:14:37.581Z,100205.97
2023-03-29T19:17:24.258Z,100147.97
2023-03-29T19:20:11.719Z,100152.06
2023-03-29T19:22:58.245Z,100095.22
2023-03-29T19:26:00.949Z,100097.91
2023-03-29T19:28:47.604Z,100194.59
2023-03-29T19:31:36.076Z,100195.72
2023-03-29T19:34:24.049Z,100177.63
2023-03-29T19:37:10.052Z,100199.22
2023-03-29T19:39:57.244Z,100158.31
2023-03-29T19:42:43.588Z,100178.53
2023-03-29T19:45:30.124Z,100194.00
2023-03-29T19:48:22.367Z,100128.84
2023-03-29T19:51:10.708Z,100167.41
2023-03-29T19:53:57.424Z,100133.31
2023-03-29T19:56:44.421Z,100195.31
2023-03-29T19:59:31.649Z,100148.47
2023-03-29T20:02:17.856Z,100163.91
2023-03-29T20:05:04.528Z,100141.38
2023-03-29T20:07:51.601Z,100044.19
2023-03-29T20:10:37.554Z,100145.56
2023-03-29T20:13:57.254Z,100070.88
2023-03-29T20:17:11.876Z,100109.34
2023-03-29T20:20:13.382Z,100136.47
2023-03-29T20:23:05.411Z,100142.16
2023-03-29T20:25:52.737Z,100088.75
2023-03-29T20:28:39.266Z,100060.56
2023-03-29T20:31:26.096Z,100120.41
2023-03-29T20:34:12.406Z,100179.56
2023-03-29T20:37:01.142Z,100041.66
2023-03-29T20:39:47.842Z,100174.94
2023-03-29T20:42:36.830Z,100080.44
2023-03-29T20:45:23.102Z,100187.22
2023-03-29T20:48:11.960Z,100135.97
2023-03-29T20:50:58.609Z,100119.47
2023-03-29T20:54:02.508Z,100175.53
2023-03-29T20:56:48.878Z,100131.59
2023-03-29T20:59:35.836Z,100100.41
2023-03-29T21:02:23.074Z,100121.50
2023-03-29T21:05:09.970Z,100164.63
2023-03-29T21:07:57.269Z,100169.19
2023-03-29T21:10:45.096Z,100161.81
2023-03-29T21:13:36.508Z,100118.16
2023-03-29T21:16:25.393Z,100163.91
2023-03-29T21:19:12.682Z,100069.91
2023-03-29T21:21:59.167Z,100132.16
2023-03-29T21:24:45.228Z,100116.69
2023-03-29T21:27:37.339Z,100094.41
2023-03-29T21:30:23.687Z,100035.66
2023-03-29T21:33:10.650Z,100088.41
2023-03-29T21:35:57.055Z,100140.38
2023-03-29T21:38:43.548Z,100119.84
2023-03-29T21:41:29.573Z,100106.50
2023-03-29T21:44:15.939Z,100059.63
2023-03-29T21:47:05.747Z,100075.06
2023-03-29T21:49:52.524Z,100084.00
2023-03-29T21:52:38.662Z,100131.94
2023-03-29T21:55:25.289Z,100088.03
2023-03-29T21:58:12.591Z,100124.28
2023-03-29T22:00:58.840Z,100104.31
2023-03-29T22:03:46.631Z,100054.75
2023-03-29T22:06:33.346Z,100062.06
2023-03-29T22:09:20.569Z,100040.94
2023-03-29T22:12:07.361Z,100098.63
2023-03-29T22:14:53.616Z,100115.69
2023-03-29T22:17:41.471Z,100121.66
2023-03-29T22:20:27.925Z,100111.81
2023-03-29T22:23:15.407Z,100115.06
2023-03-29T22:26:07.178Z,100040.63
2023-03-29T22:28:53.950Z,100059.44
2023-03-29T22:31:40.701Z,99976.59
2023-03-29T22:34:27.765Z,99982.00
2023-03-29T22:37:14.063Z,100050.44
2023-03-29T22:40:00.282Z,100020.69
2023-03-29T22:42:46.795Z,100052.63
2023-03-29T22:45:32.876Z,100076.44
2023-03-29T22:48:19.256Z,100088.00
2023-03-29T22:51:06.304Z,100096.19
2023-03-29T22:53:52.152Z,100039.13
2023-03-29T22:56:38.768Z,100088.66
2023-03-29T22:59:25.574Z,100058.31
2023-03-29T23:02:11.765Z,100096.03
2023-03-29T23:04:57.868Z,100084.66
2023-03-29T23:07:44.458Z,100060.38
2023-03-29T23:10:30.914Z,100076.63
2023-03-29T23:13:23.595Z,100029.28
2023-03-29T23:16:09.839Z,100052.25
2023-03-29T23:18:56.645Z,100080.66
2023-03-29T23:21:42.368Z,100082.78
2023-03-29T23:24:30.426Z,100063.53
2023-03-29T23:27:16.306Z,100067.66
2023-03-29T23:30:02.554Z,100076.28
2023-03-29T23:32:49.524Z,100075.72
2023-03-29T23:35:37.321Z,100045.56
2023-03-29T23:38:23.348Z,100056.75
2023-03-29T23:41:10.939Z,100067.66
2023-03-29T23:43:57.778Z,100048.91
2023-03-29T23:46:44.114Z,100052.16
2023-03-29T23:49:30.238Z,100048.84
2023-03-29T23:52:16.283Z,100048.75
2023-03-29T23:55:02.528Z,100047.16
2023-03-29T23:57:48.443Z,100057.03
